Bullhead City, AZ

6:00 PM MST on February 21, 2018 (GMT -0700)
Laughlin-Bullhead International | | Change Station
Active Advisory: Wind Advisory

Elev 692 ft 35.16 °N, 114.56 °W | Updated 5 minutes ago

Clear
Clear
55 °F
Feels Like 55 °F
N
0
Wind Variable Wind from North

Today
High -- | Low -- °F
--% Chance of Precip.
Yesterday
High -- | Low -- °F
Precip. -- in
Pressure 30.08 in
Visibility 10.0 miles
Clouds Clear
Dew Point 3 °F
Humidity 12%
Rainfall 0.00 in
Snow Depth Not available.
7:17 AM 6:26 PM
Waxing Crescent, 36% visible
METAR KIFP 220055Z 00000KT 10SM CLR 13/M16 A3008 RMK AO2
Pressure 30.08 in
Visibility 10.0 miles
Clouds Clear
Dew Point 3 °F
Humidity 12%
Rainfall 0.00 in
Snow Depth Not available.
7:17 AM 6:26 PM
Waxing Crescent, 36% visible
METAR KIFP 220055Z 00000KT 10SM CLR 13/M16 A3008 RMK AO2

Get Your Daily Forecast Email!

Thanks for signing up!

Be on the lookout for a verification email in your inbox.

You'll start receiving severe weather alerts in your inbox..

×

10-Day Weather Forecast

Almanac

Astronomy

Feb. 21, 2018 Rise Set
Actual Time
Civil Twilight
Nautical Twilight
Astronomical Twilight
Moon
Length of Visible Light
Length of Day
Tomorrow will be .
, % of the Moon is Illuminated

Today's Extremes

State Highs State Lows

Community

WunderPhotos

Category 6

Welcome to Category 6. This is the collective home for Weather Underground's featured writeups by Dr. Jeff Masters (right), Bob Henson (left), Chris Burt, and other regular contributors.

Nearby

Air Quality

  Air Quality AQ Index Pollutant
Not available.

Snow Depth

Station Depth Elevation

Earthquake Activity

City Distance Mag. Time & Date
Minimum magnitude displayed is 2.5.

Coastal Water Temperatures

Place Temperature

Stations

Nearby Weather Stations

Station Location Temp. Windchill Dew Point Humidity Wind Precip. Elev Updated Type
                   

Watches & Warnings

Wind Advisory
Issued: 4:19 PM MST Feb. 21, 2018 – National Weather Service

... Wind Advisory remains in effect from 8 am PST /9 am MST/ to
10 PM PST /11 PM MST/ Thursday...

* timing... winds will increase Thursday morning, peak Thursday
afternoon, then decrease Thursday evening.

* Winds... west to southwest winds gusting 35 to 50 mph, with
gusts to 65 mph possible in the Spring Mountains.

* Impacts... strong winds will create hazardous driving
conditions due to gusty Crosswinds and areas of blowing dust,
especially across I-15 in southern Nevada and southeast
California. Temporary fences and structures may be damaged and
loose objects displaced.

Precautionary/preparedness actions...

Check Road and weather conditions before traveling. Motorists,
and especially drivers of high-profile vehicles should be
prepared for strong Crosswinds and areas of reduced visibility.